Great Animation — VRHZ2 — position and weather

sailwx.info

Track history (hours):
 
Tides and Currents Weather Stations Pressure Air Temp Water Temp Dewpoint Dewpoint Depression Visibility Wind Speed Wind Dir Waves Ship Positions

Great Animation

Last reported at 2017-Dec-02 18:37 UTC. Time now 2017-Dec-12 14:13 UTC.
Position N 01°14' E 103°56'.
Warning: this ship's position is 9 days out of date.

Length 229 m; draft 15.1 m.

Type: Cargo ship. MMSI: 477550100.

Date/timePositionNaut miles runAvg speedWind from/ knotsBaromVisibWave heightAir tempDewpointWater temp
2017-Dec-02 18:37N 01°14' E 103°56'110.5
2017-Dec-02 18:29N 01°13' E 103°55'  
2017-Nov-27 01:18N 01°15' E 103°24'413.4
2017-Nov-27 00:59N 01°13' E 103°28'713.9
2017-Nov-27 00:30N 01°12' E 103°35'612.4
2017-Nov-27 00:00N 01°10' E 103°41'5 9.8
2017-Nov-26 23:30N 01°09' E 103°46'813.5
2017-Nov-26 22:56N 01°12' E 103°52'612.3
2017-Nov-26 22:26N 01°15' E 103°58'1 0.1
2017-Nov-26 09:50N 01°17' E 103°58'  
Track history (hours):
 
Tides and Currents Weather Stations Pressure Air Temp Water Temp Dewpoint Dewpoint Depression Visibility Wind Speed Wind Dir Waves Ship Positions

Great Animation

Last reported at 2017-Dec-02 18:37 UTC. Time now 2017-Dec-12 14:13 UTC.
Position N 01°14' E 103°56'.
Warning: this ship's position is 9 days out of date.

Length 229 m; draft 15.1 m.

Type: Cargo ship. MMSI: 477550100.

Date/timePositionNaut miles runAvg speedWind from/ knotsBaromVisibWave heightAir tempDewpointWater temp
2017-Dec-02 18:37N 01°14' E 103°56'110.5
2017-Dec-02 18:29N 01°13' E 103°55'  
2017-Nov-27 01:18N 01°15' E 103°24'413.4
2017-Nov-27 00:59N 01°13' E 103°28'713.9
2017-Nov-27 00:30N 01°12' E 103°35'612.4
2017-Nov-27 00:00N 01°10' E 103°41'5 9.8
2017-Nov-26 23:30N 01°09' E 103°46'813.5
2017-Nov-26 22:56N 01°12' E 103°52'612.3
2017-Nov-26 22:26N 01°15' E 103°58'1 0.1
2017-Nov-26 09:50N 01°17' E 103°58'  

Dump ship's entire track history